Home > Products > Valid Products > TAF

000
FTUS43 KDDC 302327
TAFGCK
TAF
KGCK 302327Z 0100/0124 34012KT P6SM SCT050 BKN180
     FM011400 35016G26KT P6SM OVC035=



000
FTUS43 KDDC 302327
TAFDDC
TAF
KDDC 302327Z 0100/0124 32010KT P6SM SCT050 BKN180
     FM011500 35015G22KT P6SM OVC035=



000
FTUS43 KDDC 302327
TAFHYS
TAF
KHYS 302327Z 0100/0124 32008KT P6SM BKN035
     FM011500 35012G20KT P6SM OVC028=



000
FTUS43 KDDC 302327
TAFDDC
TAF
KDDC 302327Z 0100/0124 32010KT P6SM SCT050 BKN180
     FM011500 35015G22KT P6SM OVC035=



000
FTUS43 KDDC 302327
TAFGCK
TAF
KGCK 302327Z 0100/0124 34012KT P6SM SCT050 BKN180
     FM011400 35016G26KT P6SM OVC035=



000
FTUS43 KDDC 302327
TAFHYS
TAF
KHYS 302327Z 0100/0124 32008KT P6SM BKN035
     FM011500 35012G20KT P6SM OVC028=



000
FTUS43 KDDC 302148 AAA
TAFHYS
TAF AMD
KHYS 302148Z 3022/0118 30013G20KT P6SM BKN040
     FM010100 31013KT P6SM BKN045=



000
FTUS43 KDDC 302147 AAA
TAFGCK
TAF AMD
KGCK 302147Z 3022/0118 30015KT P6SM FEW035 BKN050
     FM010100 33014KT P6SM SCT045=



000
FTUS43 KDDC 302147 AAA
TAFDDC
TAF AMD
KDDC 302147Z 3022/0118 30013KT P6SM FEW035 BKN050
     FM010200 32013KT P6SM SCT050=



000
FTUS43 KDDC 301720
TAFHYS
TAF
KHYS 301720Z 3018/0118 30013G20KT P6SM OVC015
     FM010100 31013KT P6SM BKN045=



000
FTUS43 KDDC 301720
TAFDDC
TAF
KDDC 301720Z 3018/0118 30014G20KT P6SM BKN020
     FM010200 32013KT P6SM SCT045=



000
FTUS43 KDDC 301720
TAFGCK
TAF
KGCK 301720Z 3018/0118 32017G25KT P6SM BKN025
     FM010100 33014KT P6SM SCT045=



000
FTUS43 KDDC 301720
TAFHYS
TAF
KHYS 301720Z 3018/0118 30013G20KT P6SM OVC015
     FM010100 31013KT P6SM BKN045=



000
FTUS43 KDDC 301720
TAFDDC
TAF
KDDC 301720Z 3018/0118 30014G20KT P6SM BKN020
     FM010200 32013KT P6SM SCT045=



000
FTUS43 KDDC 301720
TAFGCK
TAF
KGCK 301720Z 3018/0118 32017G25KT P6SM BKN025
     FM010100 33014KT P6SM SCT045=



000
FTUS43 KDDC 301120
TAFGCK
TAF
KGCK 301120Z 3012/0112 31012KT P6SM BKN008
     FM301400 31015G21KT P6SM BKN015
     FM301600 30019G27KT P6SM BKN035
     FM010000 32013G18KT P6SM SCT060
     FM011100 33012KT P6SM BKN020=



000
FTUS43 KDDC 301120
TAFHYS
TAF
KHYS 301120Z 3012/0112 31012G18KT P6SM OVC006
     FM301700 30016G24KT P6SM OVC015
     FM302100 31014G22KT P6SM OVC025
     FM010300 31013KT P6SM BKN020=



000
FTUS43 KDDC 301120
TAFDDC
TAF
KDDC 301120Z 3012/0112 30013G18KT P6SM BKN008
     FM301400 30013G18KT P6SM BKN015
     FM301800 31016G24KT P6SM BKN035
     FM010000 32013G19KT P6SM SCT060=



000
FTUS43 KDDC 301120
TAFGCK
TAF
KGCK 301120Z 3012/0112 31012KT P6SM BKN008
     FM301400 31015G21KT P6SM BKN015
     FM301600 30019G27KT P6SM BKN035
     FM010000 32013G18KT P6SM SCT060
     FM011100 33012KT P6SM BKN020=



000
FTUS43 KDDC 301120
TAFDDC
TAF
KDDC 301120Z 3012/0112 30013G18KT P6SM BKN008
     FM301400 30013G18KT P6SM BKN015
     FM301800 31016G24KT P6SM BKN035
     FM010000 32013G19KT P6SM SCT060=



000
FTUS43 KDDC 301120
TAFHYS
TAF
KHYS 301120Z 3012/0112 31012G18KT P6SM OVC006
     FM301700 30016G24KT P6SM OVC015
     FM302100 31014G22KT P6SM OVC025
     FM010300 31013KT P6SM BKN020=



000
FTUS43 KDDC 301045 AAE
TAFHYS
TAF AMD
KHYS 301045Z 3011/0106 30008KT 5SM BR BKN006 OVC011
     FM301500 32012G22KT P6SM OVC010
     FM301800 33012G22KT P6SM VCSH OVC020=



000
FTUS43 KDDC 301045 AAE
TAFDDC
TAF AMD
KDDC 301045Z 3011/0106 31014KT 4SM BR SCT006 OVC009
     FM301400 32010G20KT P6SM BKN040
     FM301800 32015G25KT P6SM BKN050
     FM010000 33012KT P6SM SCT050=



000
FTUS43 KDDC 301045 AAF
TAFGCK
TAF AMD
KGCK 301045Z 3011/0106 31009KT P6SM BKN008 BKN019
     FM301500 33015G25KT P6SM BKN040
     FM010000 34012KT P6SM SCT040=



000
FTUS43 KDDC 301045 AAE
TAFDDC
TAF AMD
KDDC 301045Z 3011/0106 31014KT 4SM BR SCT006 OVC009
     FM301400 32010G20KT P6SM BKN040
     FM301800 32015G25KT P6SM BKN050
     FM010000 33012KT P6SM SCT050=



000
FTUS43 KDDC 301045 AAE
TAFHYS
TAF AMD
KHYS 301045Z 3011/0106 30008KT 5SM BR BKN006 OVC011
     FM301500 32012G22KT P6SM OVC010
     FM301800 33012G22KT P6SM VCSH OVC020=



000
FTUS43 KDDC 301045 AAF
TAFGCK
TAF AMD
KGCK 301045Z 3011/0106 31009KT P6SM BKN008 BKN019
     FM301500 33015G25KT P6SM BKN040
     FM010000 34012KT P6SM SCT040=



000
FTUS43 KDDC 300941 AAE
TAFGCK
TAF AMD
KGCK 300941Z 3010/0106 31011KT P6SM BKN007 OVC022
     FM301500 33015G25KT P6SM BKN040
     FM010000 34012KT P6SM SCT040=



000
FTUS43 KDDC 300941 AAE
TAFDDC
TAF AMD
KDDC 300941Z 3010/0106 31015KT P6SM OVC006
     FM301400 32010G20KT P6SM BKN040
     FM301800 32015G25KT P6SM BKN050
     FM010000 33012KT P6SM SCT050=



000
FTUS43 KDDC 300941 AAD
TAFHYS
TAF AMD
KHYS 300941Z 3010/0106 32007KT P6SM BKN006 OVC013
     FM301500 32012G22KT P6SM OVC010
     FM301800 33012G22KT P6SM VCSH OVC020=



000
FTUS43 KDDC 300911 AAD
TAFGCK
TAF AMD
KGCK 300911Z 3009/0106 31012KT P6SM SCT009 BKN014 OVC023
     FM301500 33015G25KT P6SM BKN040
     FM010000 34012KT P6SM SCT040=



000
FTUS43 KDDC 300911 AAD
TAFDDC
TAF AMD
KDDC 300911Z 3009/0106 31015KT P6SM OVC006
     FM301400 32010G20KT P6SM BKN040
     FM301800 32015G25KT P6SM BKN050
     FM010000 33012KT P6SM SCT050=



000
FTUS43 KDDC 300911 AAC
TAFHYS
TAF AMD
KHYS 300911Z 3009/0106 33007KT P6SM OVC006
     FM301500 32012G22KT P6SM OVC010
     FM301800 33012G22KT P6SM VCSH OVC020=



000
FTUS43 KDDC 300829 AAC
TAFGCK
TAF AMD
KGCK 300829Z 3008/0106 30013KT 5SM BR OVC010
     FM301500 33015G25KT P6SM BKN040
     FM010000 34012KT P6SM SCT040=



000
FTUS43 KDDC 300827 AAB
TAFHYS
TAF AMD
KHYS 300827Z 3008/0106 33009KT P6SM OVC006
     FM301500 32012G22KT P6SM OVC010
     FM301800 33012G22KT P6SM VCSH OVC020=



000
FTUS43 KDDC 300827 AAB
TAFGCK
TAF AMD
KGCK 300827Z 3008/0106 31011KT P6SM OVC007
     FM301500 33015G25KT P6SM BKN040
     FM010000 34012KT P6SM SCT040=



000
FTUS43 KDDC 300827 AAB
TAFDDC
TAF AMD
KDDC 300827Z 3008/0106 31013KT P6SM OVC005
     FM301400 32010G20KT P6SM BKN040
     FM301800 32015G25KT P6SM BKN050
     FM010000 33012KT P6SM SCT050=



000
FTUS43 KDDC 300702 AAA
TAFDDC
TAF AMD
KDDC 300702Z 3007/0106 31012KT 3SM BR OVC003
     FM300900 31010KT P6SM OVC010
     FM301400 32010G20KT P6SM BKN040
     FM301800 32015G25KT P6SM BKN050
     FM010000 33012KT P6SM SCT050=



000
FTUS43 KDDC 300702 AAA
TAFHYS
TAF AMD
KHYS 300702Z 3007/0106 35012KT P6SM VCSH SCT006 BKN014 OVC030
     FM300900 34010KT P6SM OVC007
     FM301500 32012G22KT P6SM OVC010
     FM301800 33012G22KT P6SM VCSH OVC020=



000
FTUS43 KDDC 300702 AAA
TAFGCK
TAF AMD
KGCK 300702Z 3007/0106 30009KT P6SM OVC006
     FM301200 31010KT P6SM BKN010
     FM301500 33015G25KT P6SM BKN040
     FM010000 34012KT P6SM SCT040=



000
FTUS43 KDDC 300520
TAFHYS
TAF
KHYS 300520Z 3006/0106 36015KT P6SM VCSH FEW006 OVC045
     FM300900 34010KT P6SM OVC007
     FM301500 32012G22KT P6SM OVC010
     FM301800 33012G22KT P6SM VCSH OVC020=



000
FTUS43 KDDC 300520
TAFHYS
TAF
KHYS 300520Z 3006/0106 36015KT P6SM VCSH FEW006 OVC045
     FM300900 34010KT P6SM OVC007
     FM301500 32012G22KT P6SM OVC010
     FM301800 33012G22KT P6SM VCSH OVC020=



000
FTUS43 KDDC 300520
TAFDDC
TAF
KDDC 300520Z 3006/0106 33008KT P6SM OVC004
     FM300900 31010KT P6SM OVC010
     FM301400 32010G20KT P6SM BKN040
     FM301800 32015G25KT P6SM BKN050
     FM010000 33012KT P6SM SCT050=



000
FTUS43 KDDC 300520
TAFGCK
TAF
KGCK 300520Z 3006/0106 32011KT P6SM OVC007
     FM301200 31010KT P6SM BKN010
     FM301500 33015G25KT P6SM BKN040
     FM010000 34012KT P6SM SCT040=



000
FTUS43 KDDC 300310 AAD
TAFDDC
TAF AMD
KDDC 300310Z 3003/3024 34012KT P6SM OVC006
     FM301200 30014G23KT P6SM BKN040=



000
FTUS43 KDDC 300310 AAC
TAFHYS
TAF AMD
KHYS 300310Z 3003/3024 34009KT 5SM BR FEW012 SCT017 OVC030
     FM300700 33012KT P6SM OVC007
     FM301600 29015KT P6SM BKN025=



000
FTUS43 KDDC 300310 AAD
TAFDDC
TAF AMD
KDDC 300310Z 3003/3024 34012KT P6SM OVC006
     FM301200 30014G23KT P6SM BKN040=



000
FTUS43 KDDC 300310 AAD
TAFGCK
TAF AMD
KGCK 300310Z 3003/3024 36011KT P6SM FEW030 BKN045
     FM301200 30014G23KT P6SM BKN040=



000
FTUS43 KDDC 300251 AAB
TAFHYS
TAF AMD
KHYS 300251Z 3003/3024 32007KT 3SM BR FEW004 BKN012 OVC027
     FM300700 33012KT P6SM OVC007
     FM301600 29015KT P6SM BKN025=



000
FTUS43 KDDC 300251 AAC
TAFGCK
TAF AMD
KGCK 300251Z 3003/3024 01016KT P6SM SCT007 OVC035
     FM301200 30014G23KT P6SM BKN040=



000
FTUS43 KDDC 300251 AAC
TAFDDC
TAF AMD
KDDC 300251Z 3003/3024 35013KT 5SM BR BKN004 OVC015
     FM301200 30014G23KT P6SM BKN040=



000
FTUS43 KDDC 300207 AAB
TAFDDC
TAF AMD
KDDC 300207Z 3002/3024 32008KT P6SM SCT007 BKN035
     FM301200 30014G23KT P6SM BKN040=



000
FTUS43 KDDC 300207 AAB
TAFDDC
TAF AMD
KDDC 300207Z 3002/3024 32008KT P6SM SCT007 BKN035
     FM301200 30014G23KT P6SM BKN040=



000
FTUS43 KDDC 300117 AAA
TAFHYS
TAF AMD
KHYS 300117Z 3001/3024 08008KT 2SM -RA BR OVC005
     FM300700 33012KT P6SM OVC007
     FM301600 29015KT P6SM BKN025=



000
FTUS43 KDDC 300117 AAA
TAFHYS
TAF AMD
KHYS 300117Z 3001/3024 08008KT 2SM -RA BR OVC005
     FM300700 33012KT P6SM OVC007
     FM301600 29015KT P6SM BKN025=



000
FTUS43 KDDC 300116 AAB
TAFGCK
TAF AMD
KGCK 300116Z 3001/3024 35014KT P6SM SCT007 BKN035
     FM301200 30014G23KT P6SM BKN040=



000
FTUS43 KDDC 300116 AAB
TAFGCK
TAF AMD
KGCK 300116Z 3001/3024 35014KT P6SM SCT007 BKN035
     FM301200 30014G23KT P6SM BKN040=



000
FTUS43 KDDC 300037 AAA
TAFGCK
TAF AMD
KGCK 300037Z 3001/3024 33014KT P6SM SCT007 BKN030
     FM301200 30014G23KT P6SM BKN040=



000
FTUS43 KDDC 292320
TAFDDC
TAF
KDDC 292320Z 3000/3024 08010KT 2SM -RA BR BKN005 OVC015
     FM300300 31014KT P6SM BKN015
     FM301200 30014G23KT P6SM BKN040=



000
FTUS43 KDDC 292320
TAFGCK
TAF
KGCK 292320Z 3000/3024 35010KT 2SM -RA BR BKN005 OVC025
     FM300200 31014KT P6SM BKN015
     FM301200 30014G23KT P6SM BKN040=



000
FTUS43 KDDC 292320
TAFHYS
TAF
KHYS 292320Z 3000/3024 07018G25KT 3SM -RA BR OVC007
     FM300700 33012KT P6SM OVC007
     FM301600 29015KT P6SM BKN025=



000
FTUS43 KDDC 292152 AAC
TAFDDC
TAF AMD
KDDC 292152Z 2922/3018 07015G25KT 2SM -RA BR OVC005
     FM300100 36009KT P6SM VCSH OVC003
     FM300300 30014KT P6SM BKN010
     FM301400 30015G23KT P6SM BKN040=



000
FTUS43 KDDC 292152 AAC
TAFDDC
TAF AMD
KDDC 292152Z 2922/3018 07015G25KT 2SM -RA BR OVC005
     FM300100 36009KT P6SM VCSH OVC003
     FM300300 30014KT P6SM BKN010
     FM301400 30015G23KT P6SM BKN040=



000
FTUS43 KDDC 292134 AAB
TAFGCK
TAF AMD
KGCK 292134Z 2922/3018 07015G25KT 3SM -RA BR OVC002
     FM292300 36012G20KT P6SM VCSH OVC008
     FM300300 30015G23KT P6SM BKN010
     FM301600 31018KT P6SM BKN035=



000
FTUS43 KDDC 292132 AAC
TAFDDC
TAF AMD
KDDC 292132Z 2922/3018 08015G25KT P6SM OVC010
      TEMPO 2922/3001 2SM -RA BR OVC003
     FM300100 36009KT P6SM VCSH OVC003
     FM300300 30014KT P6SM BKN010
     FM301400 30015G23KT P6SM BKN040=



000
FTUS43 KDDC 292132 AAC
TAFDDC
TAF AMD
KDDC 292132Z 2922/3018 08015G25KT P6SM OVC010
      TEMPO 2922/3001 2SM -RA BR OVC003
     FM300100 36009KT P6SM VCSH OVC003
     FM300300 30014KT P6SM BKN010
     FM301400 30015G23KT P6SM BKN040=



000
FTUS43 KDDC 292030 AAB
TAFHYS
TAF AMD
KHYS 292030Z 2921/3018 06025G31KT P6SM OVC007
     FM292300 05015G27KT 2SM -TSRA OVC007CB
     FM300300 02014KT 3SM -SHRA OVC008
     FM300700 31012KT P6SM VCSH OVC003
     FM301700 29016KT P6SM VCSH BKN015=



000
FTUS43 KDDC 292030 AAB
TAFHYS
TAF AMD
KHYS 292030Z 2921/3018 06025G31KT P6SM OVC007
     FM292300 05015G27KT 2SM -TSRA OVC007CB
     FM300300 02014KT 3SM -SHRA OVC008
     FM300700 31012KT P6SM VCSH OVC003
     FM301700 29016KT P6SM VCSH BKN015=



000
FTUS43 KDDC 292029 AAA
TAFGCK
TAF AMD
KGCK 292029Z 2920/3018 06018G26KT P6SM OVC004
     FM292300 36012G20KT P6SM VCSH OVC008
     FM300300 30015G23KT P6SM BKN010
     FM301600 31018KT P6SM BKN035=



000
FTUS43 KDDC 292028 AAB
TAFDDC
TAF AMD
KDDC 292028Z 2920/3018 06027G36KT P6SM OVC010
      TEMPO 2922/3001 4SM -SHRA BR OVC003
     FM300100 36009KT P6SM VCSH OVC003
     FM300300 30014KT P6SM BKN010
     FM301400 30015G23KT P6SM BKN040=



000
FTUS43 KDDC 292028 AAB
TAFDDC
TAF AMD
KDDC 292028Z 2920/3018 06027G36KT P6SM OVC010
      TEMPO 2922/3001 4SM -SHRA BR OVC003
     FM300100 36009KT P6SM VCSH OVC003
     FM300300 30014KT P6SM BKN010
     FM301400 30015G23KT P6SM BKN040=



000
FTUS43 KDDC 291948 AAA
TAFHYS
TAF AMD
KHYS 291948Z 2920/3018 06025G33KT P6SM SCT007 BKN030
     FM292100 05015G27KT 2SM -TSRA OVC007CB
     FM300300 02014KT 3SM -SHRA OVC008
     FM300700 31012KT P6SM VCSH OVC003
     FM301700 29016KT P6SM VCSH BKN015=



000
FTUS43 KDDC 291825 AAA
TAFDDC
TAF AMD
KDDC 291825Z 2918/3018 02016G29KT P6SM BKN004
     FM292000 02016G29KT 3SM -SHRA BR SCT005 OVC012
      TEMPO 2922/2901 1 1/2SM TSRA BR OVC003CB
     FM300300 36009KT P6SM VCSH OVC003
     FM300900 30014KT P6SM BKN010
     FM301400 30015G23KT P6SM BKN040=



000
FTUS43 KDDC 291825 AAA
TAFDDC
TAF AMD
KDDC 291825Z 2918/3018 02016G29KT P6SM BKN004
     FM292000 02016G29KT 3SM -SHRA BR SCT005 OVC012
      TEMPO 2922/2901 1 1/2SM TSRA BR OVC003CB
     FM300300 36009KT P6SM VCSH OVC003
     FM300900 30014KT P6SM BKN010
     FM301400 30015G23KT P6SM BKN040=



000
FTUS43 KDDC 291720
TAFGCK
TAF
KGCK 291720Z 2918/3018 06029G39KT 6SM -SHRA BR OVC006
     FM300000 36012G20KT P6SM VCSH OVC008
     FM300900 30015G23KT P6SM BKN010
     FM301600 31018KT P6SM BKN035=



000
FTUS43 KDDC 291720
TAFHYS
TAF
KHYS 291720Z 2918/3018 04012KT P6SM OVC008
     FM291930 05015G27KT 2SM -TSRA OVC003CB
      TEMPO 3000/3001 TS OVC040CB
     FM300300 02014KT 3SM -SHRA OVC008
     FM300700 31012KT P6SM VCSH OVC003
     FM301700 29016KT P6SM VCSH BKN015=



000
FTUS43 KDDC 291720
TAFDDC
TAF
KDDC 291720Z 2918/3018 02016G29KT 3SM -SHRA BR SCT005 OVC012
      TEMPO 2918/2922 1 1/2SM TSRA BR OVC003CB
     FM300300 36009KT P6SM VCSH OVC003
     FM300900 30014KT P6SM BKN010
     FM301400 30015G23KT P6SM BKN040=



000
FTUS43 KDDC 291720
TAFGCK
TAF
KGCK 291720Z 2918/3018 06029G39KT 6SM -SHRA BR OVC006
     FM300000 36012G20KT P6SM VCSH OVC008
     FM300900 30015G23KT P6SM BKN010
     FM301600 31018KT P6SM BKN035=



000
FTUS43 KDDC 291720
TAFHYS
TAF
KHYS 291720Z 2918/3018 04012KT P6SM OVC008
     FM291930 05015G27KT 2SM -TSRA OVC003CB
      TEMPO 3000/3001 TS OVC040CB
     FM300300 02014KT 3SM -SHRA OVC008
     FM300700 31012KT P6SM VCSH OVC003
     FM301700 29016KT P6SM VCSH BKN015=



000
FTUS43 KDDC 291720
TAFDDC
TAF
KDDC 291720Z 2918/3018 02016G29KT 3SM -SHRA BR SCT005 OVC012
      TEMPO 2918/2922 1 1/2SM TSRA BR OVC003CB
     FM300300 36009KT P6SM VCSH OVC003
     FM300900 30014KT P6SM BKN010
     FM301400 30015G23KT P6SM BKN040=



000
FTUS43 KDDC 291347 AAD
TAFDDC
TAF AMD
KDDC 291347Z 2914/3012 05013KT P6SM -TSRA OVC004CB
      TEMPO 2914/2918 3SM -TSRA BR OVC003CB
     FM300000 04012G22KT 5SM -SHRA OVC003
     FM300600 32013G23KT P6SM VCSH OVC008
     FM300900 30015G25KT P6SM VCSH BKN008=



000
FTUS43 KDDC 291347 AAD
TAFDDC
TAF AMD
KDDC 291347Z 2914/3012 05013KT P6SM -TSRA OVC004CB
      TEMPO 2914/2918 3SM -TSRA BR OVC003CB
     FM300000 04012G22KT 5SM -SHRA OVC003
     FM300600 32013G23KT P6SM VCSH OVC008
     FM300900 30015G25KT P6SM VCSH BKN008=



000
FTUS43 KDDC 291332 AAC
TAFHYS
TAF AMD
KHYS 291332Z 2914/3012 06012KT P6SM SCT009 OVC070
     FM291600 06017G27KT 3SM RA OVC003
     FM300000 05015G25KT 2SM RA OVC003
     FM300600 03010G20KT 4SM -SHRA OVC003
     FM300900 03010KT 5SM -SHRA OVC003=



000
FTUS43 KDDC 291330 AAC
TAFGCK
TAF AMD
KGCK 291330Z 2914/3012 06019G26KT 4SM RA BR OVC005
      TEMPO 2915/2919 2SM -RA BR OVC003
     FM300000 02015G25KT 3SM -RA OVC003
     FM300600 34015G25KT P6SM VCSH BKN008
     FM300900 32015G25KT P6SM VCSH BKN020=



000
FTUS43 KDDC 291234 AAB
TAFGCK
TAF AMD
KGCK 291234Z 2913/3012 06022G31KT P6SM OVC004
     FM291500 06022G32KT 2SM RA OVC003
     FM300000 02015G25KT 3SM -RA OVC003
     FM300600 34015G25KT P6SM VCSH BKN008
     FM300900 32015G25KT P6SM VCSH BKN020=



000
FTUS43 KDDC 291234 AAB
TAFDDC
TAF AMD
KDDC 291234Z 2913/3012 08021G32KT 6SM -RA BR OVC006
      TEMPO 2913/2915 3SM RA BR OVC003
     FM291500 06022G32KT 3SM RA BR OVC003
     FM300000 04012G22KT 5SM -SHRA OVC003
     FM300600 32013G23KT P6SM VCSH OVC008
     FM300900 30015G25KT P6SM VCSH BKN008=



000
FTUS43 KDDC 291234 AAB
TAFHYS
TAF AMD
KHYS 291234Z 2913/3012 07015G23KT P6SM OVC006
     FM291500 06017G27KT 3SM RA OVC003
     FM300000 05015G25KT 2SM RA OVC003
     FM300600 03010G20KT 4SM -SHRA OVC003
     FM300900 03010KT 5SM -SHRA OVC003=



000
FTUS43 KDDC 291212 AAA
TAFGCK
TAF AMD
KGCK 291212Z 2912/3012 06022G31KT P6SM OVC004
     FM291500 06022G32KT 2SM RA OVC003
     FM300000 02015G25KT 3SM -RA OVC003
     FM300600 34015G25KT P6SM VCSH BKN008
     FM300900 32015G25KT P6SM VCSH BKN020=



000
FTUS43 KDDC 291212 AAA
TAFDDC
TAF AMD
KDDC 291212Z 2912/3012 08021G32KT 6SM -RA BR OVC006
      TEMPO 2912/2915 3SM RA BR OVC003
     FM291500 06022G32KT 3SM RA BR OVC003
     FM300000 04012G22KT 5SM -SHRA OVC003
     FM300600 32013G23KT P6SM VCSH OVC008
     FM300900 30015G25KT P6SM VCSH BKN008=



000
FTUS43 KDDC 291212 AAA
TAFDDC
TAF AMD
KDDC 291212Z 2912/3012 08021G32KT 6SM -RA BR OVC006
      TEMPO 2912/2915 3SM RA BR OVC003
     FM291500 06022G32KT 3SM RA BR OVC003
     FM300000 04012G22KT 5SM -SHRA OVC003
     FM300600 32013G23KT P6SM VCSH OVC008
     FM300900 30015G25KT P6SM VCSH BKN008=



000
FTUS43 KDDC 291212 AAA
TAFHYS
TAF AMD
KHYS 291212Z 2912/3012 07019G26KT P6SM SCT006 OVC080
     FM291500 06017G27KT 3SM RA OVC003
     FM300000 05015G25KT 2SM RA OVC003
     FM300600 03010G20KT 4SM -SHRA OVC003
     FM300900 03010KT 5SM -SHRA OVC003=



000
FTUS43 KDDC 291212 AAA
TAFHYS
TAF AMD
KHYS 291212Z 2912/3012 07019G26KT P6SM SCT006 OVC080
     FM291500 06017G27KT 3SM RA OVC003
     FM300000 05015G25KT 2SM RA OVC003
     FM300600 03010G20KT 4SM -SHRA OVC003
     FM300900 03010KT 5SM -SHRA OVC003=



000
FTUS43 KDDC 291212 AAA
TAFGCK
TAF AMD
KGCK 291212Z 2912/3012 06022G31KT P6SM OVC004
     FM291500 06022G32KT 2SM RA OVC003
     FM300000 02015G25KT 3SM -RA OVC003
     FM300600 34015G25KT P6SM VCSH BKN008
     FM300900 32015G25KT P6SM VCSH BKN020=



000
FTUS43 KDDC 291120
TAFGCK
TAF
KGCK 291120Z 2912/3012 06024G30KT P6SM OVC004
     FM291500 06022G32KT 2SM RA OVC003
     FM300000 02015G25KT 3SM -RA OVC003
     FM300600 34015G25KT P6SM VCSH BKN008
     FM300900 32015G25KT P6SM VCSH BKN020=



000
FTUS43 KDDC 291120
TAFHYS
TAF
KHYS 291120Z 2912/3012 05017KT P6SM -RA OVC020
     FM291500 06017G27KT 3SM RA OVC003
     FM300000 05015G25KT 2SM RA OVC003
     FM300600 03010G20KT 4SM -SHRA OVC003
     FM300900 03010KT 5SM -SHRA OVC003=



000
FTUS43 KDDC 291120
TAFDDC
TAF
KDDC 291120Z 2912/3012 07022G29KT 4SM RA BR BKN005 OVC030
     FM291500 06022G32KT 3SM RA BR OVC003
     FM300000 04012G22KT 5SM -SHRA OVC003
     FM300600 32013G23KT P6SM VCSH OVC008
     FM300900 30015G25KT P6SM VCSH BKN008=



000
FTUS43 KDDC 291120
TAFDDC
TAF
KDDC 291120Z 2912/3012 07022G29KT 4SM RA BR BKN005 OVC030
     FM291500 06022G32KT 3SM RA BR OVC003
     FM300000 04012G22KT 5SM -SHRA OVC003
     FM300600 32013G23KT P6SM VCSH OVC008
     FM300900 30015G25KT P6SM VCSH BKN008=



000
FTUS43 KDDC 291120
TAFHYS
TAF
KHYS 291120Z 2912/3012 05017KT P6SM -RA OVC020
     FM291500 06017G27KT 3SM RA OVC003
     FM300000 05015G25KT 2SM RA OVC003
     FM300600 03010G20KT 4SM -SHRA OVC003
     FM300900 03010KT 5SM -SHRA OVC003=



000
FTUS43 KDDC 290913 AAA
TAFHYS
TAF AMD
KHYS 290913Z 2909/3006 05009KT P6SM OVC060
     FM291000 05014G23KT P6SM -TSRA OVC015CB
     FM291200 05014G21KT 5SM SHRA OVC009
     FM291800 06017KT 3SM -SHRA OVC003
     FM300500 35011KT 3SM -SHRA OVC003=



000
FTUS43 KDDC 290910 AAA
TAFGCK
TAF AMD
KGCK 290910Z 2909/3006 05018G27KT P6SM -RA OVC006
     FM291300 05016G23KT 5SM SHRA OVC003
     FM292200 03016G22KT 3SM SHRA OVC003=



000
FTUS43 KDDC 290908 CCA
TAFDDC
TAF COR
KDDC 290908Z 2909/3006 04015G24KT P6SM -TSRA OVC008CB
      TEMPO 2909/2910 3SM TSRA OVC006CB
     FM291200 07013KT 5SM SHRA OVC003
     FM292300 03013KT 3SM SHRA OVC003=



000
FTUS43 KDDC 290908 AAB
TAFDDC
TAF AMD
KDDC 290908Z 2909/3006 06013G24KT P6SM -TSRA OVC008CB
      TEMPO 2909/2910 3SM TSRA OVC006CB
     FM291200 07013KT 5SM SHRA OVC003
     FM292300 03013KT 3SM SHRA OVC003=



000
FTUS43 KDDC 290908 CCA
TAFDDC
TAF COR
KDDC 290908Z 2909/3006 04015G24KT P6SM -TSRA OVC008CB
      TEMPO 2909/2910 3SM TSRA OVC006CB
     FM291200 07013KT 5SM SHRA OVC003
     FM292300 03013KT 3SM SHRA OVC003=



000
FTUS43 KDDC 290806 AAA
TAFDDC
TAF AMD
KDDC 290806Z 2908/3006 06013G24KT P6SM -TSRA OVC009CB
      TEMPO 2908/2909 3SM TSRA OVC006CB
     FM291200 07013KT 5SM SHRA OVC003
     FM292300 03013KT 3SM SHRA OVC003=



000
FTUS43 KDDC 290532
TAFGCK
TAF
KGCK 290532Z 2906/3006 06015G26KT P6SM -TSRA OVC045CB
     FM290700 06015G28KT P6SM TSRA OVC020CB
     FM291100 06015G27KT 3SM TSRA OVC003CB
     FM291300 07016KT 3SM SHRA OVC003
     FM292200 03016KT 3SM SHRA OVC003=



000
FTUS43 KDDC 290532
TAFHYS
TAF
KHYS 290532Z 2906/3006 05009KT P6SM OVC060
     FM291000 05012G21KT P6SM TSRA OVC015CB
     FM291200 05013KT 5SM SHRA OVC009
     FM291800 06017KT 3SM -SHRA OVC003
     FM300500 35011KT 3SM -SHRA OVC003=



000
FTUS43 KDDC 290532
TAFDDC
TAF
KDDC 290532Z 2906/3006 06012G21KT P6SM -TSRA OVC040CB
     FM290700 06013G23KT P6SM TSRA OVC025CB
     FM290800 06013G24KT P6SM TSRA OVC009CB
     FM291200 07013KT 5SM SHRA OVC003
     FM292300 03013KT 3SM SHRA OVC003=



000
FTUS43 KDDC 282320
TAFDDC
TAF
KDDC 282320Z 2900/2924 11008KT P6SM SKC
     FM290700 08013KT P6SM -TSRA OVC015CB
     FM291400 07014KT 3SM SHRA BR OVC003=



000
FTUS43 KDDC 282320
TAFGCK
TAF
KGCK 282320Z 2900/2924 VRB05KT P6SM FEW050
     FM290700 07015G23KT P6SM -TSRA OVC020CB
     FM291000 07016KT 6SM SHRA OVC003=



000
FTUS43 KDDC 282320
TAFHYS
TAF
KHYS 282320Z 2900/2924 03007KT P6SM OVC070
     FM290700 06014KT P6SM SHRA OVC040
     FM291300 05013KT 5SM SHRA OVC003=



000
FTUS43 KDDC 281720
TAFHYS
TAF
KHYS 281720Z 2818/2918 33009KT P6SM BKN080
     FM290700 06014KT P6SM SHRA OVC040
     FM291300 05013KT 5SM SHRA OVC003=



000
FTUS43 KDDC 281720
TAFDDC
TAF
KDDC 281720Z 2818/2918 04010KT P6SM BKN070
     FM290300 08012KT P6SM VCSH OVC040
     FM290700 08013KT P6SM -TSRA OVC015CB
     FM291400 07014KT 3SM SHRA BR OVC003=



000
FTUS43 KDDC 281720
TAFGCK
TAF
KGCK 281720Z 2818/2918 02012KT P6SM BKN070
     FM290400 07014KT P6SM VCSH OVC045
     FM290700 07015G23KT P6SM -TSRA OVC020CB
     FM291000 07016KT 6SM SHRA OVC003=



000
FTUS43 KDDC 281120
TAFHYS
TAF
KHYS 281120Z 2812/2912 32011G18KT P6SM SCT100
     FM281800 04007KT P6SM SCT100 BKN200
     FM290000 05012G22KT P6SM VCSH OVC100
     FM290500 05012G22KT P6SM -SHRA OVC030
     FM290900 05013G23KT 4SM -SHRA OVC003=



000
FTUS43 KDDC 281120
TAFDDC
TAF
KDDC 281120Z 2812/2912 35008KT P6SM BKN100
     FM281500 01010KT P6SM BKN200
     FM281800 11010KT P6SM BKN200
     FM290000 06014G24KT P6SM VCSH OVC050
     FM290500 06014G24KT P6SM -SHRA OVC030
     FM290800 06014G24KT 3SM -RA OVC003=



000
FTUS43 KDDC 281120
TAFGCK
TAF
KGCK 281120Z 2812/2912 36008KT P6SM BKN100
     FM281500 02011KT P6SM BKN100
     FM281800 11010KT P6SM SCT050 BKN200
     FM290000 06016G26KT P6SM VCSH OVC050
     FM290500 06018G28KT 4SM -SHRA OVC030
     FM290800 07019G29KT 3SM -SHRA OVC002=



000
FTUS43 KDDC 280520
TAFDDC
TAF
KDDC 280520Z 2806/2906 36005KT P6SM SCT250
     FM281400 01009KT P6SM SCT200
     FM281800 04010KT P6SM BKN250
     FM282000 09010KT P6SM SCT250=



000
FTUS43 KDDC 280520
TAFHYS
TAF
KHYS 280520Z 2806/2906 31007KT P6SM SCT250
     FM281400 34010KT P6SM SCT140
     FM281800 01006KT P6SM BKN200=



000
FTUS43 KDDC 280520
TAFGCK
TAF
KGCK 280520Z 2806/2906 04006KT P6SM BKN250
     FM280700 01007KT P6SM BKN200
     FM281500 02013KT P6SM BKN130
     FM281800 06010KT P6SM BKN200=



    US Dept of Commerce
    National Oceanic and Atmospheric Administration
    National Weather Service
    1325 East West Highway
    Silver Spring, MD 20910
    Page Author: NWS Internet Services Team
Disclaimer
Information Quality
Credits
Glossary
Privacy Policy
Freedom of Information Act (FOIA)
About Us
Career Opportunities